Time;durP1;ratioP1;P1;durP2;ratioP2;P2;SDS_P1;SDS_P2;PMS_P1;PMS_P2;Temp;Humidity;BMP_temperature;BMP_pressure;BME280_temperature;BME280_humidity;BME280_pressure;Samples;Min_cycle;Max_cycle;Signal;HPM_P1;HPM_P2
2023/09/11 00:03:08;;;;;;;8.82;5.78;;;;;;;21.11;48.68;99701.41;10374488;28;20320;-72
2023/09/11 00:08:10;;;;;;;8.13;5.07;;;;;;;21.46;48.53;99667.44;10369830;28;20243;-72
2023/09/11 00:13:12;;;;;;;6.50;5.05;;;;;;;20.96;48.59;99732.78;10373041;28;20645;-72
2023/09/11 00:18:14;;;;;;;6.85;4.72;;;;;;;20.74;48.49;99713.75;10339011;28;20263;-72
2023/09/11 00:23:16;;;;;;;6.55;5.00;;;;;;;20.28;50.02;99710.47;10351870;28;20252;-72
2023/09/11 00:28:18;;;;;;;9.65;5.20;;;;;;;21.37;48.60;99661.66;10341176;28;20234;-71
2023/09/11 00:33:20;;;;;;;6.80;5.13;;;;;;;21.77;46.23;99729.19;10345548;28;20237;-71
2023/09/11 00:38:22;;;;;;;5.70;4.72;;;;;;;21.70;46.23;99712.28;10346926;28;20228;-72
2023/09/11 00:43:23;;;;;;;6.80;5.30;;;;;;;20.59;48.57;99749.72;10349414;28;20261;-72
2023/09/11 00:48:25;;;;;;;6.95;5.10;;;;;;;21.13;47.87;99691.88;10352130;28;20765;-71
2023/09/11 00:53:27;;;;;;;7.10;5.45;;;;;;;19.19;52.07;99702.47;10385764;28;20234;-71
2023/09/11 00:58:29;;;;;;;7.07;4.90;;;;;;;20.17;50.09;99663.31;10378540;28;20233;-72
2023/09/11 01:03:31;;;;;;;6.05;4.75;;;;;;;21.56;47.16;99646.56;10381419;28;20320;-72
2023/09/11 01:08:33;;;;;;;8.02;5.18;;;;;;;20.93;48.06;99740.63;10373151;28;20236;-73
2023/09/11 01:13:35;;;;;;;8.07;4.85;;;;;;;21.78;46.51;99659.25;10379935;28;20243;-72
2023/09/11 01:18:39;;;;;;;8.30;5.25;;;;;;;22.27;45.50;99677.25;10383829;28;20228;-72
2023/09/11 01:23:53;;;;;;;8.38;4.68;;;;;;;21.56;46.33;99724.66;10387302;28;20232;-73
2023/09/11 01:29:13;;;;;;;6.72;4.70;;;;;;;21.96;45.52;99694.25;10371787;28;20239;-73
2023/09/11 01:34:15;;;;;;;9.40;4.63;;;;;;;21.15;47.29;99700.59;10390517;28;20377;-73
2023/09/11 01:39:17;;;;;;;6.63;4.95;;;;;;;22.30;45.78;99663.06;10374689;28;20596;-73
2023/09/11 01:44:29;;;;;;;7.78;5.13;;;;;;;20.56;48.30;99733.09;10380907;28;20229;-73
2023/09/11 01:49:33;;;;;;;6.85;5.30;;;;;;;22.45;45.75;99638.59;10373213;28;20228;-73
2023/09/11 01:54:35;;;;;;;6.25;5.22;;;;;;;20.29;48.77;99731.13;10377991;28;20282;-72
2023/09/11 01:59:37;;;;;;;6.70;5.00;;;;;;;19.87;50.56;99726.13;10382232;28;20239;-72
2023/09/11 02:04:39;;;;;;;9.82;5.80;;;;;;;20.02;50.88;99679.38;10384267;28;20233;-72
2023/09/11 02:09:41;;;;;;;8.13;5.60;;;;;;;21.86;47.41;99609.69;10378106;28;20236;-72
2023/09/11 02:14:42;;;;;;;7.13;5.78;;;;;;;22.37;46.86;99647.31;10384111;28;20431;-72
2023/09/11 02:19:44;;;;;;;6.07;4.80;;;;;;;21.22;47.11;99723.00;10376774;28;21856;-71
2023/09/11 02:24:45;;;;;;;9.90;5.95;;;;;;;22.93;44.64;99659.47;10379027;28;25003;-72
2023/09/11 02:29:47;;;;;;;8.60;5.03;;;;;;;22.25;45.11;99718.38;10377469;28;20228;-72
2023/09/11 02:34:49;;;;;;;7.32;4.50;;;;;;;21.40;45.87;99723.72;10386781;28;20233;-72
2023/09/11 02:39:50;;;;;;;6.90;4.88;;;;;;;21.47;46.21;99726.25;10371238;28;20235;-72
2023/09/11 02:44:52;;;;;;;6.22;4.60;;;;;;;21.66;45.57;99691.25;10378927;28;20729;-72
2023/09/11 02:49:54;;;;;;;9.45;4.82;;;;;;;20.84;45.10;99751.97;10377021;28;20243;-72
2023/09/11 02:54:56;;;;;;;8.38;4.72;;;;;;;21.58;44.64;99687.97;10385364;28;20731;-72
2023/09/11 02:59:58;;;;;;;7.50;4.80;;;;;;;21.57;45.22;99710.00;10372304;28;20316;-72
2023/09/11 03:05:00;;;;;;;9.90;5.63;;;;;;;21.65;45.70;99676.84;10357595;28;20237;-73
2023/09/11 03:10:03;;;;;;;5.63;4.90;;;;;;;21.46;45.66;99672.88;10336293;28;20741;-72
2023/09/11 03:15:06;;;;;;;7.32;5.38;;;;;;;21.18;46.21;99642.97;10340080;28;20239;-72
2023/09/11 03:20:08;;;;;;;8.18;5.53;;;;;;;21.13;45.38;99672.03;10335147;28;20727;-72
2023/09/11 03:25:10;;;;;;;5.93;5.10;;;;;;;21.09;46.39;99693.50;10342726;28;20233;-71
2023/09/11 03:30:12;;;;;;;10.23;5.38;;;;;;;19.80;47.52;99730.91;10333014;28;20246;-72
2023/09/11 03:35:13;;;;;;;7.53;5.18;;;;;;;20.21;46.78;99698.94;10342466;28;20229;-74
2023/09/11 03:40:15;;;;;;;7.30;5.88;;;;;;;19.16;49.80;99664.97;10332166;28;20603;-70
2023/09/11 03:45:17;;;;;;;7.93;5.60;;;;;;;21.07;47.43;99581.41;10339626;28;20229;-70
2023/09/11 03:50:18;;;;;;;8.80;6.10;;;;;;;19.29;51.36;99641.34;10335864;28;20249;-72
2023/09/11 03:55:20;;;;;;;7.97;5.97;;;;;;;18.21;52.95;99667.16;10343898;28;20659;-73
2023/09/11 04:00:22;;;;;;;7.03;5.90;;;;;;;18.35;52.66;99665.03;10342311;28;20320;-72
2023/09/11 04:05:23;;;;;;;8.52;6.15;;;;;;;18.84;52.79;99672.78;10342130;28;20742;-74
2023/09/11 04:10:25;;;;;;;9.07;6.38;;;;;;;17.65;55.21;99652.38;10348308;28;20259;-74
2023/09/11 04:15:26;;;;;;;8.30;6.18;;;;;;;19.75;51.96;99541.63;10347739;28;20516;-74
2023/09/11 04:20:33;;;;;;;7.88;5.95;;;;;;;20.50;48.71;99597.16;10347818;28;20702;-74
2023/09/11 04:25:34;;;;;;;8.40;5.82;;;;;;;19.10;50.53;99684.97;10345064;28;20327;-74
2023/09/11 04:30:36;;;;;;;8.25;5.78;;;;;;;20.51;48.06;99627.84;10344301;28;20236;-74
2023/09/11 04:35:38;;;;;;;8.52;6.60;;;;;;;19.95;48.72;99688.50;10343621;28;20723;-74
2023/09/11 04:40:39;;;;;;;8.27;5.53;;;;;;;20.64;47.19;99624.75;10347453;28;20304;-74
2023/09/11 04:45:41;;;;;;;6.72;5.10;;;;;;;20.82;47.20;99620.88;10344585;28;20229;-72
2023/09/11 04:50:43;;;;;;;8.20;5.85;;;;;;;20.32;47.59;99692.59;10344771;28;20237;-72
2023/09/11 04:55:45;;;;;;;7.07;5.53;;;;;;;18.96;48.60;99735.09;10344733;28;20339;-72
2023/09/11 05:00:47;;;;;;;9.27;6.20;;;;;;;18.06;52.24;99683.91;10343322;28;20804;-73
2023/09/11 05:05:49;;;;;;;9.10;6.35;;;;;;;20.72;47.65;99634.34;10340653;28;20384;-72
2023/09/11 05:10:50;;;;;;;9.13;6.07;;;;;;;20.19;48.46;99653.00;10345857;28;20364;-72
2023/09/11 05:15:53;;;;;;;7.50;6.13;;;;;;;20.56;47.81;99633.34;10345902;28;20232;-72
2023/09/11 05:20:55;;;;;;;8.75;5.93;;;;;;;20.18;48.86;99688.59;10344863;28;20234;-73
2023/09/11 05:25:56;;;;;;;9.30;6.22;;;;;;;20.25;48.62;99692.75;10346330;28;20229;-73
2023/09/11 05:30:58;;;;;;;11.38;5.53;;;;;;;20.28;47.25;99675.97;10343460;28;20302;-74
2023/09/11 05:36:01;;;;;;;7.32;5.57;;;;;;;21.07;47.00;99648.56;10346536;28;20600;-74
2023/09/11 05:41:03;;;;;;;10.30;6.32;;;;;;;20.67;48.79;99675.88;10344806;28;20256;-75
2023/09/11 05:46:05;;;;;;;6.00;5.10;;;;;;;20.10;47.62;99734.09;10346050;28;20674;-74
2023/09/11 05:51:07;;;;;;;7.32;6.38;;;;;;;19.74;49.71;99673.81;10377517;28;20252;-74
2023/09/11 05:56:08;;;;;;;8.57;6.60;;;;;;;21.07;48.03;99687.50;10389756;28;20867;-74
2023/09/11 06:01:10;;;;;;;9.13;6.70;;;;;;;21.56;47.56;99626.66;10385075;28;20232;-74
2023/09/11 06:06:12;;;;;;;9.38;6.30;;;;;;;20.65;47.69;99712.56;10384106;28;20279;-74
2023/09/11 06:11:14;;;;;;;9.05;6.20;;;;;;;20.83;46.30;99711.44;10348025;28;20328;-74
2023/09/11 06:16:15;;;;;;;8.68;6.57;;;;;;;21.80;45.50;99667.97;10345734;28;20617;-74
2023/09/11 06:21:18;;;;;;;13.77;6.78;;;;;;;21.44;46.59;99722.13;10378344;28;20228;-74
2023/09/11 06:26:20;;;;;;;11.43;7.30;;;;;;;20.98;47.88;99729.81;10379680;28;20225;-74
2023/09/11 06:31:22;;;;;;;10.90;7.25;;;;;;;21.62;47.97;99734.53;10382849;28;20224;-74
2023/09/11 06:36:24;;;;;;;11.98;7.07;;;;;;;19.96;51.57;99700.22;10387134;28;20216;-75
2023/09/11 06:41:26;;;;;;;9.50;6.20;;;;;;;22.29;47.66;99621.38;10384690;28;20442;-74
2023/09/11 06:46:28;;;;;;;9.13;6.50;;;;;;;20.96;49.04;99732.78;10387324;28;20232;-74
2023/09/11 06:51:29;;;;;;;10.20;7.50;;;;;;;21.02;49.56;99720.91;10383163;28;20636;-74
2023/09/11 06:56:31;;;;;;;11.98;7.93;;;;;;;20.42;50.81;99700.03;10390909;28;20239;-74
2023/09/11 07:01:38;;;;;;;11.93;6.53;;;;;;;22.57;46.99;99656.66;10381716;28;20243;-74
2023/09/11 07:06:40;;;;;;;9.80;6.38;;;;;;;21.38;49.30;99701.41;10381763;28;20231;-74
2023/09/11 07:11:42;;;;;;;12.05;6.60;;;;;;;22.59;46.36;99662.66;10385877;28;20257;-74
2023/09/11 07:16:44;;;;;;;9.27;6.18;;;;;;;22.82;46.58;99653.16;10386240;28;20275;-74
2023/09/11 07:21:46;;;;;;;11.45;6.75;;;;;;;21.34;49.27;99717.41;10388601;28;20256;-74
2023/09/11 07:26:48;;;;;;;10.80;7.18;;;;;;;22.06;48.59;99679.03;10355971;28;20324;-74
2023/09/11 07:31:49;;;;;;;14.90;8.02;;;;;;;21.30;49.33;99729.88;10350370;28;20225;-73
2023/09/11 07:36:52;;;;;;;13.18;7.93;;;;;;;22.42;47.25;99666.41;10384698;28;20686;-74
2023/09/11 07:41:54;;;;;;;13.25;8.65;;;;;;;21.72;49.66;99704.66;10396016;28;20236;-74
2023/09/11 07:46:58;;;;;;;12.80;9.60;;;;;;;21.63;49.49;99719.84;10389131;28;20246;-73
2023/09/11 07:52:00;;;;;;;11.63;8.75;;;;;;;21.35;50.79;99686.38;10386014;28;20229;-73
2023/09/11 07:57:02;;;;;;;11.88;8.25;;;;;;;21.46;50.67;99686.47;10397625;28;20243;-74
2023/09/11 08:02:04;;;;;;;13.55;8.02;;;;;;;22.88;48.82;99633.00;10394447;28;20340;-74
2023/09/11 08:07:05;;;;;;;11.82;7.75;;;;;;;23.92;46.68;99649.09;10387566;28;20623;-74
2023/09/11 08:12:07;;;;;;;12.82;8.02;;;;;;;22.05;49.96;99731.88;10389516;28;20631;-74
2023/09/11 08:17:09;;;;;;;12.00;7.70;;;;;;;21.93;49.45;99741.03;10390632;28;20725;-74
2023/09/11 08:22:11;;;;;;;10.52;7.80;;;;;;;22.66;49.71;99661.31;10384957;28;20585;-74
2023/09/11 08:27:12;;;;;;;10.60;7.53;;;;;;;23.21;47.50;99685.44;10380520;28;20229;-74
2023/09/11 08:32:14;;;;;;;12.98;7.32;;;;;;;22.23;49.42;99741.53;10380689;28;20247;-74
2023/09/11 08:37:16;;;;;;;12.57;6.95;;;;;;;22.52;48.75;99736.50;10344114;28;20320;-74
2023/09/11 08:42:18;;;;;;;9.70;7.35;;;;;;;23.26;48.19;99686.28;10355867;28;20746;-73
2023/09/11 08:47:26;;;;;;;12.65;6.93;;;;;;;24.92;44.58;99663.72;10344666;28;20337;-74
2023/09/11 08:52:29;;;;;;;15.80;6.55;;;;;;;24.45;45.84;99677.91;10349763;28;20645;-74
2023/09/11 08:57:33;;;;;;;10.35;6.78;;;;;;;24.46;45.97;99682.28;10385421;28;20209;-74
2023/09/11 09:02:35;;;;;;;10.82;7.07;;;;;;;24.78;45.43;99692.84;10383612;28;20355;-74
2023/09/11 09:07:38;;;;;;;11.98;6.68;;;;;;;25.00;45.36;99700.63;10387589;28;20303;-74
2023/09/11 09:12:40;;;;;;;8.82;6.25;;;;;;;25.31;44.79;99664.84;10389666;28;20252;-74
2023/09/11 09:17:42;;;;;;;10.40;6.65;;;;;;;25.34;44.28;99675.22;10384306;28;20312;-74
2023/09/11 09:23:12;;;;;;;12.15;6.82;;;;;;;25.96;43.58;99644.50;10384181;28;20240;-74
2023/09/11 09:28:28;;;;;;;9.00;6.57;;;;;;;24.07;45.47;99689.22;10376479;28;20616;-74
2023/09/11 09:33:38;;;;;;;12.30;6.40;;;;;;;24.71;43.83;99704.09;10338018;28;20229;-74
2023/09/11 09:38:40;;;;;;;10.35;6.38;;;;;;;26.11;42.82;99627.84;10344536;28;20335;-74
2023/09/11 09:43:53;;;;;;;8.95;5.95;;;;;;;24.37;45.24;99679.31;10341646;28;20237;-74
2023/09/11 09:48:55;;;;;;;14.18;6.53;;;;;;;25.77;42.70;99669.91;10346763;28;20229;-74
2023/09/11 09:53:57;;;;;;;10.50;6.25;;;;;;;25.94;43.02;99606.41;10343718;28;20774;-74
2023/09/11 09:59:01;;;;;;;15.65;6.32;;;;;;;26.31;42.57;99607.63;10345974;28;20240;-74
2023/09/11 10:04:14;;;;;;;12.82;7.32;;;;;;;24.98;44.33;99661.75;10343785;28;20241;-74
2023/09/11 10:09:19;;;;;;;9.50;5.97;;;;;;;26.51;41.83;99609.25;10342549;28;20713;-74
2023/09/11 10:14:21;;;;;;;11.73;5.88;;;;;;;26.55;42.89;99604.00;10346468;28;20232;-74
2023/09/11 10:19:27;;;;;;;9.95;6.15;;;;;;;26.68;42.64;99580.50;10339653;28;20232;-74
2023/09/11 10:24:29;;;;;;;8.57;5.45;;;;;;;26.67;42.57;99603.53;10361618;28;20777;-74
2023/09/11 10:29:43;;;;;;;9.73;5.63;;;;;;;26.92;42.09;99581.25;10386720;28;20236;-74
2023/09/11 10:34:48;;;;;;;9.57;5.53;;;;;;;26.55;42.69;99579.31;10381960;28;20232;-74
2023/09/11 10:39:52;;;;;;;7.80;5.38;;;;;;;27.69;41.25;99554.31;10387669;28;20235;-74
2023/09/11 10:44:54;;;;;;;10.23;5.63;;;;;;;26.69;41.69;99582.13;10383976;28;20240;-75
2023/09/11 10:49:58;;;;;;;9.10;5.97;;;;;;;27.68;40.97;99561.75;10387220;28;20236;-74
2023/09/11 10:55:03;;;;;;;7.70;5.57;;;;;;;28.85;39.67;99525.66;10385654;28;20228;-74
2023/09/11 11:00:05;;;;;;;10.25;6.03;;;;;;;28.31;39.56;99529.13;10380109;28;20334;-74
2023/09/11 11:06:21;;;;;;;8.95;5.97;;;;;;;26.57;42.84;99484.63;10356860;27;20831;-74
2023/09/11 11:11:29;;;;;;;8.10;5.47;;;;;;;26.57;42.69;99511.25;10332327;28;20225;-74
2023/09/11 11:16:31;;;;;;;6.70;4.70;;;;;;;26.42;43.42;99506.81;10300366;28;20293;-73
2023/09/11 11:21:40;;;;;;;11.73;5.45;;;;;;;27.36;41.60;99493.97;10333937;28;20240;-74
2023/09/11 11:26:44;;;;;;;9.38;5.45;;;;;;;27.28;42.23;99500.19;10332991;28;20288;-74
2023/09/11 11:31:48;;;;;;;10.20;5.35;;;;;;;27.46;41.06;99499.28;10333211;28;20240;-74
2023/09/11 11:36:53;;;;;;;7.60;5.20;;;;;;;27.18;41.41;99509.41;10329725;28;20226;-74
2023/09/11 11:41:56;;;;;;;8.18;5.00;;;;;;;27.56;40.43;99525.72;10338772;28;20307;-74
2023/09/11 11:46:59;;;;;;;7.53;5.07;;;;;;;27.74;41.21;99499.28;10348133;28;20226;-74
2023/09/11 11:52:03;;;;;;;6.00;5.25;;;;;;;27.91;40.79;99500.56;10335205;28;20229;-74
2023/09/11 11:57:05;;;;;;;7.68;5.22;;;;;;;28.40;40.34;99485.16;10333320;28;20260;-74
2023/09/11 12:02:22;;;;;;;8.05;6.25;;;;;;;27.72;42.12;99506.19;10332823;28;20245;-74
2023/09/11 12:07:25;;;;;;;7.95;5.38;;;;;;;28.19;41.79;99471.91;10324781;28;20260;-74
2023/09/11 12:12:26;;;;;;;8.30;5.22;;;;;;;28.09;42.21;99476.78;10338428;28;20316;-74
2023/09/11 12:17:28;;;;;;;6.93;5.10;;;;;;;28.34;41.09;99472.66;10306384;28;20812;-74
2023/09/11 12:22:30;;;;;;;5.85;5.00;;;;;;;28.21;41.93;99464.16;10306019;28;20225;-74
2023/09/11 12:27:33;;;;;;;6.53;5.38;;;;;;;28.48;40.96;99462.41;10307202;28;20628;-73
2023/09/11 12:32:35;;;;;;;8.05;5.28;;;;;;;27.70;41.85;99481.78;10304205;28;20232;-73
2023/09/11 12:37:39;;;;;;;11.68;5.72;;;;;;;28.79;40.01;99442.38;10301384;28;20507;-75
2023/09/11 12:42:40;;;;;;;8.45;4.97;;;;;;;28.61;39.27;99457.97;10306399;28;20250;-75
2023/09/11 12:47:42;;;;;;;10.77;5.20;;;;;;;28.71;40.05;99448.66;10306261;28;20241;-75
2023/09/11 12:52:48;;;;;;;8.25;4.55;;;;;;;28.70;39.87;99434.06;10302671;28;20323;-75
2023/09/11 12:57:51;;;;;;;7.20;4.78;;;;;;;28.59;39.08;99461.03;10303211;28;20512;-75
2023/09/11 13:02:58;;;;;;;6.78;4.32;;;;;;;29.08;37.99;99439.13;10297651;28;20328;-75
2023/09/11 13:08:00;;;;;;;5.85;4.35;;;;;;;28.85;38.37;99432.06;10303049;28;20237;-75
2023/09/11 13:13:05;;;;;;;7.88;4.38;;;;;;;29.27;37.54;99427.88;10299676;28;20234;-75
2023/09/11 13:18:09;;;;;;;6.90;4.25;;;;;;;28.56;38.01;99458.91;10298958;28;20222;-75
2023/09/11 13:23:10;;;;;;;7.22;4.43;;;;;;;28.21;37.77;99439.41;10301813;28;20240;-75
2023/09/11 13:28:12;;;;;;;4.72;3.88;;;;;;;29.06;36.68;99426.78;10303934;28;20424;-75
2023/09/11 13:33:14;;;;;;;6.72;4.35;;;;;;;29.22;35.95;99403.22;10297872;28;20233;-75
2023/09/11 13:38:16;;;;;;;5.85;3.60;;;;;;;28.72;36.60;99429.06;10299489;28;20904;-75
2023/09/11 13:43:18;;;;;;;5.25;3.67;;;;;;;29.44;35.16;99394.03;10302794;28;20235;-76
2023/09/11 13:48:19;;;;;;;8.80;3.90;;;;;;;28.50;35.68;99418.88;10292923;28;20245;-74
2023/09/11 13:53:21;;;;;;;6.35;3.75;;;;;;;28.56;36.68;99405.78;10300805;28;20240;-74
2023/09/11 13:58:23;;;;;;;3.90;3.38;;;;;;;29.08;35.42;99408.81;10294532;28;20323;-74
2023/09/11 14:03:24;;;;;;;6.50;3.47;;;;;;;29.04;34.69;99407.81;10291747;28;20296;-74
2023/09/11 14:08:26;;;;;;;4.93;3.90;;;;;;;28.91;35.24;99420.56;10302708;28;20794;-74
2023/09/11 14:13:28;;;;;;;7.70;3.65;;;;;;;29.28;35.40;99363.34;10295939;28;20238;-75
2023/09/11 14:18:30;;;;;;;5.88;3.88;;;;;;;30.11;33.98;99377.38;10290140;28;20260;-75
2023/09/11 14:23:32;;;;;;;6.78;3.55;;;;;;;29.99;33.94;99355.94;10297408;28;20237;-75
2023/09/11 14:28:33;;;;;;;6.10;3.22;;;;;;;29.86;34.43;99366.03;10294529;28;20466;-75
2023/09/11 14:33:35;;;;;;;11.52;3.83;;;;;;;29.78;35.04;99353.84;10292387;28;20234;-75
2023/09/11 14:38:37;;;;;;;6.40;3.47;;;;;;;29.16;35.03;99385.22;10295699;28;20265;-73
2023/09/11 14:43:39;;;;;;;6.50;3.40;;;;;;;28.74;35.19;99381.94;10285336;28;20728;-73
2023/09/11 14:48:41;;;;;;;7.78;3.75;;;;;;;28.97;35.39;99360.66;10295518;28;20256;-73
2023/09/11 14:53:43;;;;;;;6.18;4.03;;;;;;;29.95;34.71;99343.97;10298238;28;20751;-73
2023/09/11 14:58:45;;;;;;;7.32;3.35;;;;;;;30.25;34.64;99337.44;10293252;28;20693;-73
2023/09/11 15:05:17;;;;;;;6.78;3.97;;;;;;;28.86;36.03;99310.56;10414798;27;21200;-74
2023/09/11 15:10:19;;;;;;;5.68;3.22;;;;;;;27.71;37.55;99317.69;10354493;23;20252;-36
2023/09/11 15:15:21;;;;;;;6.03;3.90;;;;;;;27.88;36.59;99317.81;10411002;28;20236;-35
2023/09/11 15:20:23;;;;;;;5.85;3.78;;;;;;;28.50;36.34;99297.00;10430479;28;20243;-35
2023/09/11 15:25:25;;;;;;;8.85;3.60;;;;;;;28.72;35.48;99296.94;10375192;22;20237;-37
2023/09/11 15:30:27;;;;;;;5.60;3.95;;;;;;;28.82;36.09;99306.03;10369263;28;20225;-37
2023/09/11 15:35:28;;;;;;;5.63;3.40;;;;;;;29.19;36.00;99295.63;10381180;28;20233;-36
2023/09/11 15:40:30;;;;;;;7.13;3.60;;;;;;;29.29;35.26;99285.09;10378271;28;20235;-37
2023/09/11 15:45:32;;;;;;;6.47;3.50;;;;;;;28.32;36.23;99327.16;10374176;28;20274;-36
2023/09/11 15:50:34;;;;;;;8.20;3.97;;;;;;;28.15;36.42;99329.78;10376389;28;20236;-37
2023/09/11 15:55:36;;;;;;;7.25;3.42;;;;;;;29.65;35.82;99277.66;10372011;28;20307;-35
2023/09/11 16:00:37;;;;;;;5.63;3.45;;;;;;;29.22;35.84;99297.72;10376305;28;20229;-35
2023/09/11 16:05:41;;;;;;;4.95;3.40;;;;;;;29.10;35.68;99314.84;10371456;28;20734;-35
2023/09/11 16:10:44;;;;;;;7.07;3.50;;;;;;;29.11;35.79;99310.97;10374820;28;20327;-34
2023/09/11 16:15:46;;;;;;;9.23;4.07;;;;;;;29.23;36.30;99305.66;10352557;28;20237;-35
2023/09/11 16:20:47;;;;;;;7.60;3.55;;;;;;;29.12;36.26;99307.09;10348051;28;20759;-35
2023/09/11 16:25:49;;;;;;;7.75;4.00;;;;;;;29.57;35.42;99294.97;10343163;28;20232;-34
2023/09/11 16:30:52;;;;;;;7.63;3.72;;;;;;;29.44;35.63;99303.09;10345964;28;20279;-35
2023/09/11 16:35:53;;;;;;;4.47;3.72;;;;;;;29.27;35.54;99314.09;10343901;28;20715;-36
2023/09/11 16:40:55;;;;;;;8.30;3.30;;;;;;;29.35;35.90;99313.28;10342443;28;20248;-35
2023/09/11 16:45:59;;;;;;;5.97;3.55;;;;;;;29.31;36.02;99313.13;10343563;28;20229;-34
2023/09/11 16:51:01;;;;;;;9.25;4.00;;;;;;;29.95;35.06;99302.59;10345330;28;20287;-35
2023/09/11 16:56:04;;;;;;;4.40;3.60;;;;;;;29.64;35.48;99320.97;10343525;28;20233;-35
2023/09/11 17:01:07;;;;;;;9.60;4.00;;;;;;;30.39;35.77;99300.53;10344679;28;20320;-34
2023/09/11 17:06:09;;;;;;;8.93;3.80;;;;;;;30.61;35.14;99292.03;10340803;28;20233;-35
2023/09/11 17:11:11;;;;;;;6.35;3.60;;;;;;;30.41;35.62;99298.25;10347358;28;20252;-36
2023/09/11 17:16:12;;;;;;;6.45;4.10;;;;;;;30.66;35.33;99288.25;10344636;28;20233;-35
2023/09/11 17:21:14;;;;;;;10.77;4.70;;;;;;;29.70;35.68;99327.91;10347142;28;20240;-35
2023/09/11 17:26:16;;;;;;;5.07;3.83;;;;;;;30.34;35.39;99301.53;10348342;28;20237;-34
2023/09/11 17:31:18;;;;;;;8.55;4.13;;;;;;;30.13;35.61;99295.94;10345826;28;20295;-34
2023/09/11 17:36:20;;;;;;;5.68;3.95;;;;;;;29.85;35.82;99314.78;10346963;28;20244;-34
2023/09/11 17:41:22;;;;;;;7.25;4.10;;;;;;;29.51;36.62;99327.41;10343525;28;20225;-34
2023/09/11 17:46:23;;;;;;;7.82;3.92;;;;;;;30.18;35.81;99295.75;10345044;28;20948;-35
2023/09/11 17:51:25;;;;;;;7.28;4.07;;;;;;;28.98;37.42;99309.94;10346146;28;20992;-37
2023/09/11 17:56:27;;;;;;;7.45;4.10;;;;;;;27.42;40.46;99311.44;10339071;28;20237;-37
2023/09/11 18:01:29;;;;;;;5.78;4.30;;;;;;;28.82;37.93;99265.56;10345058;28;20240;-36
2023/09/11 18:06:31;;;;;;;7.00;4.35;;;;;;;29.29;37.42;99279.56;10342391;28;20243;-36
2023/09/11 18:11:33;;;;;;;7.32;4.03;;;;;;;28.73;37.96;99304.06;10342097;28;20288;-36
2023/09/11 18:16:34;;;;;;;8.18;4.50;;;;;;;28.40;38.08;99323.66;10339557;28;20350;-36
2023/09/11 18:21:38;;;;;;;6.85;4.63;;;;;;;26.98;40.17;99301.16;10345034;28;20276;-36
2023/09/11 18:26:40;;;;;;;10.90;5.35;;;;;;;27.61;39.35;99280.25;10339056;28;20315;-36
2023/09/11 18:31:43;;;;;;;6.82;4.50;;;;;;;27.06;40.15;99322.34;10345685;28;20229;-36
2023/09/11 18:36:45;;;;;;;8.43;4.97;;;;;;;26.71;40.73;99321.97;10335701;28;20844;-36
2023/09/11 18:41:47;;;;;;;8.02;4.60;;;;;;;27.13;39.64;99342.00;10339689;28;20327;-36
2023/09/11 18:46:49;;;;;;;12.05;5.20;;;;;;;26.29;40.91;99354.81;10342827;28;20240;-36
2023/09/11 18:51:55;;;;;;;8.65;4.47;;;;;;;28.39;38.19;99305.53;10341583;28;20221;-36
2023/09/11 18:56:57;;;;;;;8.82;4.70;;;;;;;28.20;38.31;99310.44;10341372;28;20322;-36
2023/09/11 19:02:02;;;;;;;6.88;4.68;;;;;;;26.79;39.95;99367.94;10341607;28;20236;-36
2023/09/11 19:07:04;;;;;;;9.32;4.90;;;;;;;27.92;38.75;99315.25;10339671;28;20265;-37
2023/09/11 19:12:06;;;;;;;9.48;4.88;;;;;;;27.21;39.54;99357.75;10343061;28;20217;-36
2023/09/11 19:17:09;;;;;;;10.30;4.72;;;;;;;28.08;38.44;99310.19;10341215;28;20233;-37
2023/09/11 19:22:13;;;;;;;9.05;4.90;;;;;;;25.58;42.05;99382.16;10339802;28;20761;-36
2023/09/11 19:27:14;;;;;;;8.27;4.95;;;;;;;26.03;41.87;99330.53;10337516;28;20272;-37
2023/09/11 19:32:16;;;;;;;11.20;4.95;;;;;;;26.07;42.09;99321.72;10336440;28;20380;-38
2023/09/11 19:37:18;;;;;;;10.25;5.35;;;;;;;26.15;42.23;99316.38;10339728;28;20235;-36
2023/09/11 19:42:20;;;;;;;7.47;5.18;;;;;;;25.98;42.63;99347.06;10340841;28;20244;-40
2023/09/11 19:47:22;;;;;;;7.88;5.63;;;;;;;25.14;44.54;99349.59;10332854;28;20237;-39
2023/09/11 19:52:24;;;;;;;9.50;5.47;;;;;;;23.71;47.24;99363.47;10347159;28;20236;-37
2023/09/11 19:57:32;;;;;;;7.10;5.40;;;;;;;23.68;47.50;99328.50;10347237;28;20613;-37
2023/09/11 20:02:38;;;;;;;7.70;5.78;;;;;;;23.32;48.61;99331.44;10343970;28;20237;-39
2023/09/11 20:07:39;;;;;;;8.15;5.60;;;;;;;24.07;47.03;99314.81;10317232;28;20240;-36
2023/09/11 20:12:44;;;;;;;8.38;5.70;;;;;;;26.53;43.15;99301.72;10349975;28;20233;-35
2023/09/11 20:17:46;;;;;;;10.77;5.63;;;;;;;24.53;45.87;99373.78;10353575;28;20236;-36
2023/09/11 20:22:47;;;;;;;10.38;5.95;;;;;;;23.65;47.40;99380.97;10349995;28;20241;-37
2023/09/11 20:27:49;;;;;;;11.18;5.50;;;;;;;24.60;46.04;99349.63;10345963;28;20256;-36
2023/09/11 20:32:51;;;;;;;7.13;5.60;;;;;;;24.18;46.26;99365.59;10348947;28;20244;-37
2023/09/11 20:37:53;;;;;;;8.05;5.65;;;;;;;24.39;46.76;99335.31;10346233;28;20287;-37
2023/09/11 20:42:57;;;;;;;11.38;5.65;;;;;;;23.91;47.15;99357.03;10348263;28;20769;-36
2023/09/11 20:47:59;;;;;;;13.25;6.57;;;;;;;23.39;48.49;99359.22;10347453;28;20952;-36
2023/09/11 20:53:01;;;;;;;11.88;5.82;;;;;;;23.99;46.84;99353.69;10347707;28;20230;-36
2023/09/11 20:58:03;;;;;;;10.23;5.97;;;;;;;23.68;47.33;99370.28;10346821;28;20241;-36
2023/09/11 21:03:05;;;;;;;11.00;6.57;;;;;;;25.13;45.28;99337.00;10345646;28;20343;-36
2023/09/11 21:08:06;;;;;;;7.00;5.70;;;;;;;24.83;45.50;99371.84;10345191;28;20321;-36
2023/09/11 21:13:09;;;;;;;10.00;5.43;;;;;;;24.21;46.73;99388.81;10348646;28;20241;-36
2023/09/11 21:18:11;;;;;;;7.78;5.10;;;;;;;23.28;48.25;99409.50;10348840;28;20226;-36
2023/09/11 21:23:12;;;;;;;11.70;7.13;;;;;;;23.31;48.94;99357.09;10348477;28;20332;-36
2023/09/11 21:28:14;;;;;;;13.00;6.28;;;;;;;23.53;47.74;99373.06;10347751;28;20997;-38
2023/09/11 21:33:16;;;;;;;8.50;6.22;;;;;;;23.26;48.39;99377.03;10348150;28;20261;-36
2023/09/11 21:38:18;;;;;;;7.78;5.72;;;;;;;23.20;48.75;99369.97;10344931;28;20233;-35
2023/09/11 21:43:20;;;;;;;12.15;5.68;;;;;;;22.60;49.74;99384.28;10348657;28;20744;-36
2023/09/11 21:48:22;;;;;;;11.60;6.38;;;;;;;22.43;50.76;99354.53;10347175;28;20268;-37
2023/09/11 21:53:24;;;;;;;9.35;6.28;;;;;;;22.92;49.46;99347.66;10349526;28;20244;-35
2023/09/11 21:58:25;;;;;;;8.45;6.05;;;;;;;23.22;48.23;99357.66;10347456;28;20668;-35
2023/09/11 22:03:27;;;;;;;8.00;5.55;;;;;;;22.30;49.88;99383.19;10348262;28;20236;-35
2023/09/11 22:08:29;;;;;;;8.38;5.68;;;;;;;22.06;50.74;99388.34;10346874;28;20253;-37
2023/09/11 22:13:31;;;;;;;10.48;6.03;;;;;;;22.70;49.68;99359.72;10347591;28;20320;-36
2023/09/11 22:18:33;;;;;;;9.35;5.93;;;;;;;22.46;49.52;99354.00;10343293;28;20752;-35
2023/09/11 22:23:34;;;;;;;11.02;6.28;;;;;;;22.15;50.25;99358.69;10349567;28;20295;-35
2023/09/11 22:28:36;;;;;;;9.93;6.15;;;;;;;22.09;49.66;99384.28;10345427;28;20233;-37
2023/09/11 22:33:38;;;;;;;9.52;6.07;;;;;;;22.09;49.31;99376.91;10346821;28;20229;-37
2023/09/11 22:38:40;;;;;;;8.73;6.53;;;;;;;22.52;49.44;99343.94;10344339;28;20348;-36
2023/09/11 22:43:42;;;;;;;7.47;5.65;;;;;;;22.28;49.75;99365.47;10346065;28;20617;-36
2023/09/11 22:48:46;;;;;;;9.73;6.85;;;;;;;21.74;50.19;99367.56;10346646;28;20788;-34
2023/09/11 22:53:47;;;;;;;13.27;6.55;;;;;;;23.40;46.71;99385.44;10344462;28;20225;-37
2023/09/11 22:58:49;;;;;;;10.23;6.50;;;;;;;23.71;46.09;99413.44;10346228;28;20240;-38
2023/09/11 23:03:51;;;;;;;9.48;5.35;;;;;;;25.45;43.57;99355.50;10345083;28;20252;-38
2023/09/11 23:08:53;;;;;;;9.70;6.15;;;;;;;22.96;46.70;99430.59;10343352;28;20662;-37
2023/09/11 23:13:55;;;;;;;10.55;6.13;;;;;;;23.37;46.95;99358.72;10345345;28;20233;-35
2023/09/11 23:18:56;;;;;;;10.45;6.18;;;;;;;23.05;47.23;99363.44;10342492;28;20244;-36
2023/09/11 23:24:13;;;;;;;7.78;5.32;;;;;;;22.68;47.64;99374.72;10342642;28;20253;-37
2023/09/11 23:29:14;;;;;;;9.18;5.55;;;;;;;24.36;44.80;99361.34;10351852;28;20236;-36